createdAt,value
2023-03-26T00:01:46.774Z,7.34
2023-03-26T00:04:14.554Z,7.26
2023-03-26T00:06:42.158Z,7.22
2023-03-26T00:09:13.233Z,7.20
2023-03-26T00:11:44.014Z,7.20
2023-03-26T00:14:14.010Z,7.25
2023-03-26T00:16:44.402Z,7.31
2023-03-26T00:19:14.986Z,7.29
2023-03-26T00:21:43.122Z,7.22
2023-03-26T00:24:15.155Z,7.14
2023-03-26T00:26:53.153Z,7.09
2023-03-26T00:29:22.875Z,7.14
2023-03-26T00:31:50.583Z,7.08
2023-03-26T00:34:18.865Z,7.02
2023-03-26T00:36:49.440Z,6.94
2023-03-26T00:39:18.017Z,6.91
2023-03-26T00:41:45.746Z,6.79
2023-03-26T00:44:13.303Z,6.72
2023-03-26T00:46:41.268Z,6.67
2023-03-26T00:49:11.162Z,6.78
2023-03-26T00:51:39.385Z,6.85
2023-03-26T00:54:10.551Z,6.89
2023-03-26T00:56:38.724Z,6.84
2023-03-26T00:59:07.439Z,6.94
2023-03-26T01:01:36.077Z,6.93
2023-03-26T01:04:24.185Z,6.93
2023-03-26T01:06:58.760Z,6.89
2023-03-26T01:09:33.531Z,6.92
2023-03-26T01:12:05.713Z,7.00
2023-03-26T01:14:33.388Z,6.98
2023-03-26T01:17:03.760Z,7.06
2023-03-26T01:19:46.514Z,7.16
2023-03-26T01:22:17.392Z,7.23
2023-03-26T01:24:46.166Z,7.22
2023-03-26T01:27:17.804Z,7.28
2023-03-26T01:30:06.172Z,7.29
2023-03-26T01:32:48.967Z,7.32
2023-03-26T01:35:36.714Z,7.38
2023-03-26T01:38:15.337Z,7.33
2023-03-26T01:41:09.247Z,7.33
2023-03-26T01:43:55.213Z,7.35
2023-03-26T01:46:25.711Z,7.41
2023-03-26T01:48:53.597Z,7.39
2023-03-26T01:51:31.093Z,7.31
2023-03-26T01:54:02.234Z,7.26
2023-03-26T01:56:54.724Z,7.23
2023-03-26T01:59:31.925Z,7.21
2023-03-26T02:02:14.742Z,7.14
2023-03-26T02:04:53.382Z,7.10
2023-03-26T02:07:28.729Z,7.06
2023-03-26T02:10:01.631Z,7.08
2023-03-26T02:12:31.303Z,7.04
2023-03-26T02:15:03.883Z,7.02
2023-03-26T02:17:33.157Z,7.09
2023-03-26T02:20:10.775Z,7.05
2023-03-26T02:22:40.978Z,7.00
2023-03-26T02:25:11.147Z,6.94
2023-03-26T02:27:39.824Z,6.86
2023-03-26T02:30:10.128Z,6.80
2023-03-26T02:32:40.979Z,6.77
2023-03-26T02:35:10.166Z,6.73
2023-03-26T02:37:39.915Z,6.67
2023-03-26T02:40:11.772Z,6.64
2023-03-26T02:42:40.080Z,6.60
2023-03-26T02:45:08.114Z,6.56
2023-03-26T02:47:37.962Z,6.52
2023-03-26T02:50:09.017Z,6.49
2023-03-26T02:52:37.457Z,6.48
2023-03-26T02:55:05.429Z,6.44
2023-03-26T02:57:33.170Z,6.39
2023-03-26T03:00:05.014Z,6.38
2023-03-26T03:02:32.698Z,6.31
2023-03-26T03:05:01.932Z,6.26
2023-03-26T03:07:30.045Z,6.16
2023-03-26T03:10:02.531Z,6.06
2023-03-26T03:12:30.304Z,6.00
2023-03-26T03:15:00.258Z,5.96
2023-03-26T03:17:27.911Z,5.93
2023-03-26T03:19:55.549Z,5.86
2023-03-26T03:22:23.191Z,5.79
2023-03-26T03:24:52.935Z,5.71
2023-03-26T03:27:22.356Z,5.67
2023-03-26T03:29:49.968Z,5.64
2023-03-26T03:32:18.663Z,5.58
2023-03-26T03:34:46.414Z,5.57
2023-03-26T03:37:14.000Z,5.54
2023-03-26T03:39:41.677Z,5.54
2023-03-26T03:42:09.269Z,5.51
2023-03-26T03:44:39.195Z,5.46
2023-03-26T03:47:10.449Z,5.39
2023-03-26T03:49:39.412Z,5.38
2023-03-26T03:52:09.497Z,5.30
2023-03-26T03:54:37.083Z,5.29
2023-03-26T03:57:04.781Z,5.24
2023-03-26T03:59:32.620Z,5.21
2023-03-26T04:02:00.832Z,5.16
2023-03-26T04:04:28.469Z,5.13
2023-03-26T04:07:00.803Z,5.08
2023-03-26T04:09:28.427Z,5.09
2023-03-26T04:11:56.063Z,5.05
2023-03-26T04:14:23.744Z,5.01
2023-03-26T04:16:51.374Z,5.03
2023-03-26T04:19:19.540Z,4.98
2023-03-26T04:21:49.569Z,4.95
2023-03-26T04:24:17.221Z,4.94
2023-03-26T04:26:45.096Z,4.91
2023-03-26T04:29:19.217Z,4.94
2023-03-26T04:31:47.109Z,4.93
2023-03-26T04:34:25.207Z,4.90
2023-03-26T04:36:55.030Z,4.86
2023-03-26T04:39:22.941Z,4.84
2023-03-26T04:41:52.920Z,4.87
2023-03-26T04:44:23.377Z,4.91
2023-03-26T04:46:52.961Z,5.01
2023-03-26T04:49:23.621Z,5.12
2023-03-26T04:51:52.544Z,5.23
2023-03-26T04:54:24.439Z,5.43
2023-03-26T04:56:56.671Z,5.50
2023-03-26T04:59:34.955Z,5.64
2023-03-26T05:02:04.949Z,5.84
2023-03-26T05:04:34.154Z,6.07
2023-03-26T05:07:02.235Z,6.35
2023-03-26T05:09:29.968Z,6.60
2023-03-26T05:11:58.434Z,6.84
2023-03-26T05:14:26.109Z,7.05
2023-03-26T05:16:55.959Z,7.28
2023-03-26T05:19:23.576Z,7.55
2023-03-26T05:21:51.195Z,7.80
2023-03-26T05:24:19.722Z,8.00
2023-03-26T05:26:47.311Z,8.15
2023-03-26T05:29:17.171Z,8.25
2023-03-26T05:31:45.273Z,8.32
2023-03-26T05:34:13.298Z,8.42
2023-03-26T05:36:40.902Z,8.46
2023-03-26T05:39:08.669Z,8.52
2023-03-26T05:41:36.553Z,8.57
2023-03-26T05:44:04.253Z,8.61
2023-03-26T05:46:33.213Z,8.61
2023-03-26T05:49:00.901Z,8.62
2023-03-26T05:51:28.490Z,8.65
2023-03-26T05:53:56.121Z,8.66
2023-03-26T05:56:23.715Z,8.64
2023-03-26T05:58:52.075Z,8.64
2023-03-26T06:01:19.879Z,8.70
2023-03-26T06:03:47.986Z,8.71
2023-03-26T06:06:19.346Z,8.73
2023-03-26T06:09:02.195Z,8.78
2023-03-26T06:11:32.036Z,8.86
2023-03-26T06:14:00.494Z,8.93
2023-03-26T06:16:33.142Z,8.99
2023-03-26T06:19:00.838Z,9.10
2023-03-26T06:21:29.617Z,9.18
2023-03-26T06:23:57.692Z,9.33
2023-03-26T06:26:25.869Z,9.46
2023-03-26T06:28:55.939Z,9.58
2023-03-26T06:31:23.709Z,9.75
2023-03-26T06:33:52.068Z,9.92
2023-03-26T06:36:22.085Z,10.18
2023-03-26T06:38:49.745Z,10.32
2023-03-26T06:41:17.749Z,10.43
2023-03-26T06:43:45.608Z,10.61
2023-03-26T06:46:13.405Z,10.79
2023-03-26T06:48:42.114Z,10.99
2023-03-26T06:51:12.569Z,11.26
2023-03-26T06:53:40.312Z,11.46
2023-03-26T06:56:09.204Z,11.69
2023-03-26T06:58:38.960Z,11.97
2023-03-26T07:01:06.847Z,12.29
2023-03-26T07:03:34.522Z,12.51
2023-03-26T07:06:02.187Z,12.79
2023-03-26T07:08:30.924Z,13.11
2023-03-26T07:10:58.666Z,13.45
2023-03-26T07:13:26.302Z,13.57
2023-03-26T07:15:53.930Z,13.77
2023-03-26T07:18:21.601Z,14.09
2023-03-26T07:20:49.464Z,14.07
2023-03-26T07:23:20.159Z,14.25
2023-03-26T07:25:49.772Z,14.14
2023-03-26T07:28:32.914Z,14.45
2023-03-26T07:31:21.929Z,14.92
2023-03-26T07:34:18.649Z,15.19
2023-03-26T07:36:52.769Z,15.89
2023-03-26T07:39:45.551Z,17.27
2023-03-26T07:42:45.878Z,18.40
2023-03-26T07:45:40.773Z,19.07
2023-03-26T07:48:40.784Z,17.90
2023-03-26T07:51:10.155Z,17.91
2023-03-26T07:53:38.189Z,17.04
2023-03-26T07:56:16.278Z,16.48
2023-03-26T07:58:57.731Z,16.26
2023-03-26T08:02:06.645Z,15.58
2023-03-26T08:04:43.586Z,16.25
2023-03-26T08:07:35.012Z,15.99
2023-03-26T08:10:39.397Z,14.88
2023-03-26T08:13:36.601Z,14.02
2023-03-26T08:16:44.439Z,13.60
2023-03-26T08:19:27.274Z,13.75
2023-03-26T08:22:00.069Z,13.74
2023-03-26T08:24:37.148Z,13.92
2023-03-26T08:27:22.865Z,14.12
2023-03-26T08:30:28.933Z,14.10
2023-03-26T08:33:00.394Z,14.39
2023-03-26T08:35:28.824Z,14.69
2023-03-26T08:37:56.710Z,14.03
2023-03-26T08:40:48.159Z,13.79
2023-03-26T08:43:27.939Z,14.01
2023-03-26T08:46:17.184Z,14.09
2023-03-26T08:49:00.041Z,14.31
2023-03-26T08:51:58.420Z,14.26
2023-03-26T08:54:47.291Z,14.76
2023-03-26T08:57:54.941Z,14.90
2023-03-26T09:00:33.861Z,15.02
2023-03-26T09:03:33.940Z,16.32
2023-03-26T09:06:25.279Z,17.65
2023-03-26T09:09:19.134Z,18.62
2023-03-26T09:12:12.328Z,17.94
2023-03-26T09:14:48.791Z,18.24
2023-03-26T09:17:43.815Z,16.77
2023-03-26T09:20:22.775Z,17.31
2023-03-26T09:23:27.940Z,17.33
2023-03-26T09:26:04.441Z,18.54
2023-03-26T09:29:02.473Z,19.02
2023-03-26T09:31:51.472Z,19.84
2023-03-26T09:34:25.050Z,20.87
2023-03-26T09:36:58.436Z,21.38
2023-03-26T09:39:28.854Z,20.49
2023-03-26T09:42:19.275Z,22.55
2023-03-26T09:45:08.963Z,20.79
2023-03-26T09:47:54.625Z,21.29
2023-03-26T09:50:56.385Z,21.33
2023-03-26T09:53:42.771Z,22.14
2023-03-26T09:56:25.775Z,22.32
2023-03-26T09:59:30.324Z,22.23
2023-03-26T10:02:22.723Z,23.06
2023-03-26T10:05:39.090Z,21.31
2023-03-26T10:08:30.874Z,20.56
2023-03-26T10:11:05.792Z,19.01
2023-03-26T10:14:05.559Z,18.31
2023-03-26T10:17:05.044Z,17.38
2023-03-26T10:19:52.960Z,17.06
2023-03-26T10:22:53.952Z,16.75
2023-03-26T10:25:43.047Z,16.01
2023-03-26T10:28:49.520Z,15.09
2023-03-26T10:31:41.896Z,13.88
2023-03-26T10:34:37.270Z,12.41
2023-03-26T10:37:13.902Z,11.68
2023-03-26T10:40:16.656Z,11.54
2023-03-26T10:43:21.772Z,12.05
2023-03-26T10:46:04.531Z,12.95
2023-03-26T10:49:00.954Z,13.92
2023-03-26T10:52:04.757Z,15.82
2023-03-26T10:55:04.492Z,17.53
2023-03-26T10:57:56.142Z,17.20
2023-03-26T11:00:29.199Z,16.13
2023-03-26T11:03:34.374Z,15.87
2023-03-26T11:06:11.296Z,15.34
2023-03-26T11:08:45.974Z,14.87
2023-03-26T11:11:22.353Z,14.56
2023-03-26T11:14:04.930Z,14.23
2023-03-26T11:16:40.144Z,13.86
2023-03-26T11:19:34.000Z,13.76
2023-03-26T11:22:04.437Z,13.89
2023-03-26T11:25:05.560Z,14.25
2023-03-26T11:28:05.120Z,14.76
2023-03-26T11:31:11.327Z,14.66
2023-03-26T11:33:50.321Z,14.38
2023-03-26T11:36:24.838Z,14.44
2023-03-26T11:38:57.498Z,14.39
2023-03-26T11:41:30.817Z,14.72
2023-03-26T11:44:03.981Z,16.04
2023-03-26T11:46:33.960Z,18.25
2023-03-26T11:49:07.661Z,19.27
2023-03-26T11:51:37.868Z,19.90
2023-03-26T11:54:07.876Z,20.67
2023-03-26T11:57:04.819Z,20.67
2023-03-26T11:59:53.090Z,21.26
2023-03-26T12:02:40.717Z,20.89
2023-03-26T12:05:18.037Z,19.45
2023-03-26T12:07:58.122Z,18.68
2023-03-26T12:10:38.924Z,17.61
2023-03-26T12:13:17.572Z,17.25
2023-03-26T12:15:45.364Z,17.35
2023-03-26T12:18:26.016Z,17.68
2023-03-26T12:21:05.901Z,17.28
2023-03-26T12:23:56.288Z,17.01
2023-03-26T12:26:44.975Z,18.44
2023-03-26T12:29:23.546Z,18.83
2023-03-26T12:32:14.379Z,19.39
2023-03-26T12:34:42.587Z,20.13
2023-03-26T12:37:43.267Z,20.54
2023-03-26T12:40:26.131Z,21.10
2023-03-26T12:44:55.725Z,19.96
2023-03-26T12:47:56.208Z,20.29
2023-03-26T12:49:11.990Z,20.16
2023-03-26T12:51:57.268Z,19.17
2023-03-26T12:54:44.806Z,18.24
2023-03-26T12:57:22.828Z,17.73
2023-03-26T12:59:53.491Z,17.10
2023-03-26T13:02:35.724Z,16.72
2023-03-26T13:05:24.694Z,16.44
2023-03-26T13:08:20.352Z,16.47
2023-03-26T13:11:30.879Z,16.49
2023-03-26T13:14:16.514Z,16.61
2023-03-26T13:16:46.947Z,16.68
2023-03-26T13:19:23.575Z,16.52
2023-03-26T13:21:54.128Z,17.19
2023-03-26T13:24:32.099Z,17.46
2023-03-26T13:27:13.562Z,17.16
2023-03-26T13:30:01.746Z,16.99
2023-03-26T13:32:41.320Z,17.61
2023-03-26T13:35:11.878Z,17.74
2023-03-26T13:38:15.898Z,17.97
2023-03-26T13:41:06.766Z,18.45
2023-03-26T13:43:43.364Z,17.99
2023-03-26T13:46:31.366Z,17.65
2023-03-26T13:49:12.928Z,17.17
2023-03-26T13:51:46.500Z,16.93
2023-03-26T13:54:32.371Z,16.89
2023-03-26T13:57:05.895Z,17.00
2023-03-26T13:59:45.265Z,16.91
2023-03-26T14:02:31.833Z,17.05
2023-03-26T14:05:09.632Z,17.09
2023-03-26T14:07:57.284Z,16.89
2023-03-26T14:10:34.341Z,16.98
2023-03-26T14:13:23.724Z,17.12
2023-03-26T14:15:58.480Z,17.21
2023-03-26T14:18:32.419Z,17.20
2023-03-26T14:21:09.498Z,17.10
2023-03-26T14:23:58.990Z,16.88
2023-03-26T14:26:47.198Z,16.83
2023-03-26T14:29:57.060Z,16.83
2023-03-26T14:32:34.365Z,16.78
2023-03-26T14:35:26.072Z,16.84
2023-03-26T14:38:07.219Z,16.91
2023-03-26T14:41:01.174Z,16.81
2023-03-26T14:44:06.339Z,16.80
2023-03-26T14:47:01.570Z,16.72
2023-03-26T14:49:53.792Z,16.50
2023-03-26T14:52:43.038Z,16.51
2023-03-26T14:55:33.746Z,16.39
2023-03-26T14:58:06.912Z,16.27
2023-03-26T15:00:53.149Z,16.23
2023-03-26T15:03:50.314Z,16.21
2023-03-26T15:06:49.873Z,16.22
2023-03-26T15:09:39.247Z,16.17
2023-03-26T15:12:35.999Z,16.11
2023-03-26T15:15:28.320Z,16.03
2023-03-26T15:18:22.001Z,15.95
2023-03-26T15:21:34.662Z,15.84
2023-03-26T15:24:05.492Z,15.83
2023-03-26T15:26:56.856Z,15.84
2023-03-26T15:29:53.543Z,15.86
2023-03-26T15:32:52.709Z,15.85
2023-03-26T15:35:29.429Z,15.82
2023-03-26T15:38:28.379Z,15.77
2023-03-26T15:41:01.868Z,15.79
2023-03-26T15:44:22.392Z,15.91
2023-03-26T15:46:59.225Z,15.94
2023-03-26T15:49:35.938Z,15.97
2023-03-26T15:52:17.513Z,15.96
2023-03-26T15:54:57.297Z,15.91
2023-03-26T15:57:41.135Z,15.85
2023-03-26T16:00:16.393Z,15.82
2023-03-26T16:03:16.075Z,15.78
2023-03-26T16:06:28.116Z,15.70
2023-03-26T16:09:00.541Z,15.61
2023-03-26T16:11:54.473Z,15.53
2023-03-26T16:14:43.454Z,15.39
2023-03-26T16:17:20.704Z,15.31
2023-03-26T16:20:31.599Z,15.19
2023-03-26T16:23:04.661Z,15.06
2023-03-26T16:25:36.508Z,14.97
2023-03-26T16:28:13.402Z,14.93
2023-03-26T16:30:42.157Z,14.83
2023-03-26T16:33:21.680Z,14.74
2023-03-26T16:36:04.886Z,14.59
2023-03-26T16:39:00.525Z,14.47
2023-03-26T16:41:29.896Z,14.40
2023-03-26T16:44:13.824Z,14.22
2023-03-26T16:46:57.630Z,14.20
2023-03-26T16:50:08.128Z,14.27
2023-03-26T16:52:43.211Z,14.26
2023-03-26T16:55:23.848Z,14.06
2023-03-26T16:58:28.016Z,13.97
2023-03-26T17:01:23.466Z,13.87
2023-03-26T17:03:55.303Z,13.79
2023-03-26T17:06:53.416Z,13.68
2023-03-26T17:09:26.039Z,13.65
2023-03-26T17:12:13.671Z,13.50
2023-03-26T17:14:48.779Z,13.42
2023-03-26T17:17:24.844Z,13.39
2023-03-26T17:19:52.556Z,13.29
2023-03-26T17:22:35.461Z,13.26
2023-03-26T17:25:21.963Z,13.18
2023-03-26T17:28:14.739Z,13.09
2023-03-26T17:31:07.284Z,12.96
2023-03-26T17:33:36.709Z,12.77
2023-03-26T17:36:13.448Z,12.68
2023-03-26T17:38:44.920Z,12.73
2023-03-26T17:41:17.119Z,12.59
2023-03-26T17:43:51.111Z,12.55
2023-03-26T17:46:48.631Z,12.51
2023-03-26T17:49:24.311Z,12.40
2023-03-26T17:52:27.539Z,12.30
2023-03-26T17:54:58.062Z,12.21
2023-03-26T17:57:31.612Z,12.11
2023-03-26T18:00:01.763Z,12.06
2023-03-26T18:02:42.729Z,12.02
2023-03-26T18:05:14.448Z,12.00
2023-03-26T18:08:15.213Z,11.98
2023-03-26T18:11:01.513Z,11.99
2023-03-26T18:13:38.371Z,11.96
2023-03-26T18:16:16.534Z,11.96
2023-03-26T18:19:18.431Z,11.94
2023-03-26T18:21:50.458Z,11.91
2023-03-26T18:24:38.087Z,11.91
2023-03-26T18:27:12.927Z,11.92
2023-03-26T18:30:01.953Z,11.92
2023-03-26T18:32:33.654Z,11.92
2023-03-26T18:35:15.725Z,11.92
2023-03-26T18:37:46.076Z,11.92
2023-03-26T18:40:20.111Z,11.95
2023-03-26T18:42:55.738Z,11.94
2023-03-26T18:45:37.198Z,11.93
2023-03-26T18:48:19.214Z,11.90
2023-03-26T18:50:48.903Z,11.85
2023-03-26T18:53:22.095Z,11.82
2023-03-26T18:55:52.761Z,11.78
2023-03-26T18:58:25.339Z,11.76
2023-03-26T19:00:59.123Z,11.76
2023-03-26T19:03:29.570Z,11.69
2023-03-26T19:05:59.075Z,11.61
2023-03-26T19:08:27.377Z,11.61
2023-03-26T19:10:56.469Z,11.58
2023-03-26T19:13:24.632Z,11.54
2023-03-26T19:15:56.788Z,11.45
2023-03-26T19:18:28.745Z,11.33
2023-03-26T19:21:02.996Z,11.20
2023-03-26T19:23:38.942Z,11.07
2023-03-26T19:26:09.509Z,10.94
2023-03-26T19:28:40.800Z,10.82
2023-03-26T19:31:13.275Z,10.86
2023-03-26T19:33:43.524Z,10.79
2023-03-26T19:36:13.894Z,10.84
2023-03-26T19:38:45.445Z,10.85
2023-03-26T19:41:26.515Z,10.85
2023-03-26T19:43:56.179Z,10.83
2023-03-26T19:46:24.561Z,10.82
2023-03-26T19:48:58.096Z,10.84
2023-03-26T19:51:33.142Z,10.82
2023-03-26T19:54:04.236Z,10.77
2023-03-26T19:56:32.318Z,10.78
2023-03-26T19:59:00.390Z,10.75
2023-03-26T20:01:31.912Z,10.72
2023-03-26T20:04:04.102Z,10.74
2023-03-26T20:06:42.625Z,10.71
2023-03-26T20:09:14.201Z,10.69
2023-03-26T20:11:42.204Z,10.71
2023-03-26T20:14:26.640Z,10.69
2023-03-26T20:16:54.404Z,10.64
2023-03-26T20:19:23.041Z,10.64
2023-03-26T20:21:53.046Z,10.60
2023-03-26T20:24:24.723Z,10.59
2023-03-26T20:26:54.751Z,10.53
2023-03-26T20:29:23.531Z,10.51
2023-03-26T20:31:51.317Z,10.46
2023-03-26T20:34:24.510Z,10.46
2023-03-26T20:36:55.404Z,10.39
2023-03-26T20:39:26.310Z,10.39
2023-03-26T20:41:56.260Z,10.38
2023-03-26T20:44:26.775Z,10.29
2023-03-26T20:46:56.436Z,10.27
2023-03-26T20:49:25.146Z,10.31
2023-03-26T20:51:55.640Z,10.27
2023-03-26T20:54:25.394Z,10.29
2023-03-26T20:56:54.422Z,10.34
2023-03-26T20:59:26.684Z,10.38
2023-03-26T21:01:56.564Z,10.45
2023-03-26T21:04:25.025Z,10.59
2023-03-26T21:06:57.566Z,10.70
2023-03-26T21:09:34.068Z,10.67
2023-03-26T21:12:07.079Z,10.64
2023-03-26T21:14:39.268Z,10.65
2023-03-26T21:17:08.143Z,10.63
2023-03-26T21:19:36.244Z,10.65
2023-03-26T21:22:13.740Z,10.61
2023-03-26T21:24:44.145Z,10.60
2023-03-26T21:27:59.807Z,10.58
2023-03-26T21:30:27.714Z,10.61
2023-03-26T21:32:57.512Z,10.67
2023-03-26T21:35:25.852Z,10.77
2023-03-26T21:37:54.161Z,10.83
2023-03-26T21:40:21.868Z,10.82
2023-03-26T21:42:53.510Z,10.77
2023-03-26T21:45:22.172Z,10.76
2023-03-26T21:47:52.144Z,10.69
2023-03-26T21:50:24.069Z,10.65
2023-03-26T21:52:52.649Z,10.59
2023-03-26T21:55:22.770Z,10.55
2023-03-26T21:57:56.603Z,10.53
2023-03-26T22:00:42.742Z,10.45
2023-03-26T22:03:22.514Z,10.30
2023-03-26T22:06:03.582Z,10.28
2023-03-26T22:08:39.971Z,10.26
2023-03-26T22:11:09.090Z,10.22
2023-03-26T22:13:38.616Z,10.15
2023-03-26T22:16:10.675Z,10.13
2023-03-26T22:18:38.545Z,10.16
2023-03-26T22:21:07.084Z,10.14
2023-03-26T22:23:36.632Z,10.13
2023-03-26T22:26:09.693Z,10.13
2023-03-26T22:28:37.285Z,10.12
2023-03-26T22:31:09.732Z,10.10
2023-03-26T22:33:40.068Z,9.94
2023-03-26T22:36:22.692Z,9.92
2023-03-26T22:38:56.690Z,9.91
2023-03-26T22:41:24.379Z,9.83
2023-03-26T22:43:54.608Z,9.84
2023-03-26T22:46:23.703Z,9.67
2023-03-26T22:48:51.663Z,9.65
2023-03-26T22:51:20.094Z,9.59
2023-03-26T22:53:47.743Z,9.56
2023-03-26T22:56:18.850Z,9.56
2023-03-26T22:58:47.571Z,9.47
2023-03-26T23:01:24.042Z,9.43
2023-03-26T23:03:52.101Z,9.36
2023-03-26T23:06:19.729Z,9.31
2023-03-26T23:08:47.311Z,9.27
2023-03-26T23:11:17.931Z,9.36
2023-03-26T23:13:47.436Z,9.28
2023-03-26T23:16:18.125Z,9.26
2023-03-26T23:18:45.846Z,9.26
2023-03-26T23:21:22.043Z,9.20
2023-03-26T23:23:53.187Z,9.16
2023-03-26T23:26:21.440Z,9.13
2023-03-26T23:28:51.120Z,9.08
2023-03-26T23:31:19.051Z,9.10
2023-03-26T23:33:47.570Z,9.08
2023-03-26T23:36:18.732Z,9.09
2023-03-26T23:38:52.022Z,9.07
2023-03-26T23:41:22.131Z,8.99
2023-03-26T23:43:55.589Z,9.03
2023-03-26T23:46:25.420Z,9.01
2023-03-26T23:48:59.619Z,9.04
2023-03-26T23:51:27.465Z,9.04
2023-03-26T23:53:55.107Z,9.05
2023-03-26T23:56:24.837Z,9.04
2023-03-26T23:58:52.877Z,8.95
